Time;durP1;ratioP1;P1;durP2;ratioP2;P2;SDS_P1;SDS_P2;PMS_P1;PMS_P2;Temp;Humidity;BMP_temperature;BMP_pressure;BME280_temperature;BME280_humidity;BME280_pressure;Samples;Min_cycle;Max_cycle;Signal;HPM_P1;HPM_P2
2021/06/05 00:00:05;;;;;;;;;;;20.80;54.60;;;;;;487560;243;1140;-75
2021/06/05 00:02:06;;;;;;;;;;;20.80;54.60;;;;;;487502;243;1127;-75
2021/06/05 00:04:07;;;;;;;;;;;21.00;54.10;;;;;;487579;244;1012;-75
2021/06/05 00:06:10;;;;;;;;;;;21.10;53.80;;;;;;487491;244;1065;-75
2021/06/05 00:08:10;;;;;;;;;;;21.20;53.50;;;;;;487558;245;1371;-75
2021/06/05 00:10:11;;;;;;;;;;;21.20;53.30;;;;;;487525;240;1334;-75
2021/06/05 00:12:13;;;;;;;;;;;21.30;53.20;;;;;;487465;244;1071;-75
2021/06/05 00:14:14;;;;;;;;;;;21.20;53.10;;;;;;487539;243;952;-75
2021/06/05 00:16:16;;;;;;;;;;;21.30;53.10;;;;;;487389;244;2178;-75
2021/06/05 00:18:17;;;;;;;;;;;21.30;53.00;;;;;;487468;243;981;-75
2021/06/05 00:20:18;;;;;;;;;;;21.30;52.80;;;;;;487484;244;963;-75
2021/06/05 00:22:20;;;;;;;;;;;21.30;52.70;;;;;;487387;243;1070;-75
2021/06/05 00:24:21;;;;;;;;;;;21.40;52.70;;;;;;487549;244;997;-75
2021/06/05 00:26:22;;;;;;;;;;;21.40;52.40;;;;;;487416;244;1257;-75
2021/06/05 00:28:24;;;;;;;;;;;21.40;52.50;;;;;;487520;244;975;-75
2021/06/05 00:30:25;;;;;;;;;;;21.40;52.50;;;;;;487540;244;1073;-75
2021/06/05 00:32:26;;;;;;;;;;;21.40;52.60;;;;;;487546;244;1037;-75
2021/06/05 00:34:27;;;;;;;;;;;21.40;52.50;;;;;;487537;244;1116;-75
2021/06/05 00:36:29;;;;;;;;;;;21.50;52.50;;;;;;487507;243;2203;-75
2021/06/05 00:38:30;;;;;;;;;;;21.40;52.50;;;;;;487496;244;1113;-75
2021/06/05 00:40:31;;;;;;;;;;;21.50;52.50;;;;;;487586;243;1261;-75
2021/06/05 00:42:32;;;;;;;;;;;21.40;52.50;;;;;;487629;243;1049;-75
2021/06/05 00:44:34;;;;;;;;;;;21.40;52.50;;;;;;487547;244;941;-75
2021/06/05 00:46:35;;;;;;;;;;;21.30;52.60;;;;;;487437;243;1167;-75
2021/06/05 00:48:36;;;;;;;;;;;21.40;52.70;;;;;;487522;243;1119;-75
2021/06/05 00:50:38;;;;;;;;;;;21.30;52.60;;;;;;487644;243;1007;-75
2021/06/05 00:52:39;;;;;;;;;;;21.30;52.60;;;;;;487521;244;978;-75
2021/06/05 00:54:40;;;;;;;;;;;21.40;52.60;;;;;;487637;243;944;-75
2021/06/05 00:56:41;;;;;;;;;;;21.40;52.50;;;;;;487497;244;2214;-75
2021/06/05 00:58:43;;;;;;;;;;;21.40;52.40;;;;;;487508;244;990;-75
2021/06/05 01:00:44;;;;;;;;;;;21.40;52.40;;;;;;487521;244;1038;-74
2021/06/05 01:02:45;;;;;;;;;;;21.40;52.40;;;;;;487537;243;972;-75
2021/06/05 01:04:47;;;;;;;;;;;21.40;52.50;;;;;;487617;243;1124;-75
2021/06/05 01:06:48;;;;;;;;;;;21.50;52.50;;;;;;487541;243;912;-75
2021/06/05 01:08:50;;;;;;;;;;;21.40;52.40;;;;;;487554;244;970;-75
2021/06/05 01:10:51;;;;;;;;;;;21.40;52.50;;;;;;487639;241;1208;-75
2021/06/05 01:12:52;;;;;;;;;;;21.40;52.40;;;;;;487482;244;1080;-75
2021/06/05 01:14:53;;;;;;;;;;;21.40;52.40;;;;;;487534;244;942;-75
2021/06/05 01:16:54;;;;;;;;;;;21.50;52.20;;;;;;487397;244;2183;-75
2021/06/05 01:18:56;;;;;;;;;;;21.50;52.30;;;;;;487532;243;1057;-75
2021/06/05 01:20:57;;;;;;;;;;;21.50;52.30;;;;;;487511;243;1015;-75
2021/06/05 01:22:58;;;;;;;;;;;21.50;52.20;;;;;;487619;243;1072;-75
2021/06/05 01:25:00;;;;;;;;;;;21.30;52.60;;;;;;487597;243;936;-75
2021/06/05 01:27:01;;;;;;;;;;;21.10;53.20;;;;;;487513;244;1138;-75
2021/06/05 01:29:02;;;;;;;;;;;21.10;53.70;;;;;;487531;243;1125;-75
2021/06/05 01:31:03;;;;;;;;;;;21.10;53.90;;;;;;487468;241;1390;-75
2021/06/05 01:33:05;;;;;;;;;;;21.00;54.10;;;;;;487497;244;1051;-75
2021/06/05 01:35:06;;;;;;;;;;;21.00;54.20;;;;;;487612;244;935;-75
2021/06/05 01:37:07;;;;;;;;;;;20.90;54.20;;;;;;487501;244;2135;-75
2021/06/05 01:39:08;;;;;;;;;;;20.90;54.20;;;;;;487525;243;974;-75
2021/06/05 01:41:10;;;;;;;;;;;20.80;54.40;;;;;;487509;243;1108;-75
2021/06/05 01:43:11;;;;;;;;;;;20.80;54.50;;;;;;487519;244;1111;-75
2021/06/05 01:45:12;;;;;;;;;;;20.80;54.50;;;;;;487569;244;935;-75
2021/06/05 01:47:14;;;;;;;;;;;20.80;54.50;;;;;;487464;243;1216;-75
2021/06/05 01:49:15;;;;;;;;;;;20.80;54.50;;;;;;487550;244;971;-75
2021/06/05 01:51:17;;;;;;;;;;;20.90;54.40;;;;;;487533;244;1160;-75
2021/06/05 01:53:18;;;;;;;;;;;21.10;54.00;;;;;;487499;243;1095;-75
2021/06/05 01:55:19;;;;;;;;;;;21.20;53.70;;;;;;487530;243;1103;-75
2021/06/05 01:57:21;;;;;;;;;;;21.20;53.40;;;;;;487398;240;2167;-75
2021/06/05 01:59:22;;;;;;;;;;;21.20;53.30;;;;;;487604;244;950;-75
2021/06/05 02:01:23;;;;;;;;;;;21.30;53.20;;;;;;487564;243;1220;-75
2021/06/05 02:03:24;;;;;;;;;;;21.40;52.80;;;;;;487545;244;1012;-75
2021/06/05 02:05:26;;;;;;;;;;;21.40;52.80;;;;;;487562;243;1036;-75
2021/06/05 02:07:27;;;;;;;;;;;21.30;52.80;;;;;;487477;244;1014;-75
2021/06/05 02:09:28;;;;;;;;;;;21.40;52.80;;;;;;487516;243;976;-75
2021/06/05 02:11:29;;;;;;;;;;;21.30;52.70;;;;;;487538;240;1159;-75
2021/06/05 02:13:31;;;;;;;;;;;21.30;52.80;;;;;;487511;243;1181;-75
2021/06/05 02:15:32;;;;;;;;;;;21.30;52.80;;;;;;487619;244;1017;-75
2021/06/05 02:17:33;;;;;;;;;;;21.30;52.80;;;;;;487504;243;2174;-75
2021/06/05 02:19:35;;;;;;;;;;;21.30;52.80;;;;;;487570;243;961;-75
2021/06/05 02:21:36;;;;;;;;;;;21.30;52.80;;;;;;487583;244;1154;-75
2021/06/05 02:23:37;;;;;;;;;;;21.30;52.80;;;;;;487565;243;954;-75
2021/06/05 02:25:39;;;;;;;;;;;21.30;52.70;;;;;;487555;244;1194;-75
2021/06/05 02:27:40;;;;;;;;;;;21.40;52.70;;;;;;487581;240;1098;-75
2021/06/05 02:29:41;;;;;;;;;;;21.40;52.60;;;;;;487586;243;972;-75
2021/06/05 02:31:42;;;;;;;;;;;21.40;52.50;;;;;;487449;244;1197;-75
2021/06/05 02:33:44;;;;;;;;;;;21.50;52.50;;;;;;487502;243;982;-75
2021/06/05 02:35:45;;;;;;;;;;;21.40;52.50;;;;;;487538;243;1109;-75
2021/06/05 02:37:46;;;;;;;;;;;21.40;52.50;;;;;;487434;244;2178;-75
2021/06/05 02:39:47;;;;;;;;;;;21.50;52.60;;;;;;487536;244;1097;-75
2021/06/05 02:41:49;;;;;;;;;;;21.40;52.60;;;;;;487544;243;1231;-75
2021/06/05 02:43:50;;;;;;;;;;;21.30;52.60;;;;;;487502;244;1144;-75
2021/06/05 02:45:51;;;;;;;;;;;21.40;52.60;;;;;;487530;243;1148;-75
2021/06/05 02:47:53;;;;;;;;;;;21.40;52.60;;;;;;487591;243;1321;-75
2021/06/05 02:49:54;;;;;;;;;;;21.40;52.60;;;;;;487584;243;1156;-75
2021/06/05 02:51:55;;;;;;;;;;;21.40;52.60;;;;;;487550;241;1298;-75
2021/06/05 02:53:56;;;;;;;;;;;21.40;52.50;;;;;;487550;244;954;-75
2021/06/05 02:55:58;;;;;;;;;;;21.40;52.50;;;;;;487520;244;1241;-75
2021/06/05 02:57:59;;;;;;;;;;;21.40;52.50;;;;;;487524;243;2170;-75
2021/06/05 03:00:00;;;;;;;;;;;21.40;52.40;;;;;;487543;243;1018;-75
2021/06/05 03:02:02;;;;;;;;;;;21.40;52.40;;;;;;487460;244;1190;-75
2021/06/05 03:04:03;;;;;;;;;;;21.40;52.50;;;;;;487567;244;996;-75
2021/06/05 03:06:04;;;;;;;;;;;21.40;52.40;;;;;;487517;244;1216;-75
2021/06/05 03:08:05;;;;;;;;;;;21.40;52.30;;;;;;487568;244;1160;-75
2021/06/05 03:10:07;;;;;;;;;;;21.40;52.20;;;;;;487534;243;983;-75
2021/06/05 03:12:08;;;;;;;;;;;21.40;52.30;;;;;;487454;244;1107;-75
2021/06/05 03:14:09;;;;;;;;;;;21.50;52.30;;;;;;487557;244;1155;-75
2021/06/05 03:16:10;;;;;;;;;;;21.50;52.10;;;;;;487460;243;1226;-75
2021/06/05 03:18:12;;;;;;;;;;;21.60;52.20;;;;;;487564;244;2170;-75
2021/06/05 03:20:13;;;;;;;;;;;21.50;52.20;;;;;;487575;243;941;-75
2021/06/05 03:22:14;;;;;;;;;;;21.50;52.30;;;;;;487481;244;1126;-75
2021/06/05 03:24:16;;;;;;;;;;;21.40;52.30;;;;;;487561;244;947;-75
2021/06/05 03:26:17;;;;;;;;;;;21.40;52.30;;;;;;487469;241;1225;-75
2021/06/05 03:28:18;;;;;;;;;;;21.50;52.30;;;;;;487645;243;1146;-75
2021/06/05 03:30:20;;;;;;;;;;;21.40;52.30;;;;;;487552;244;1093;-75
2021/06/05 03:32:21;;;;;;;;;;;21.40;52.30;;;;;;487501;243;1241;-75
2021/06/05 03:34:22;;;;;;;;;;;21.30;52.60;;;;;;487548;244;1163;-75
2021/06/05 03:36:23;;;;;;;;;;;21.10;53.20;;;;;;487513;243;1229;-75
2021/06/05 03:38:25;;;;;;;;;;;21.00;53.60;;;;;;487559;243;2190;-75
2021/06/05 03:40:26;;;;;;;;;;;20.90;53.90;;;;;;487530;244;1050;-75
2021/06/05 03:42:28;;;;;;;;;;;20.90;54.10;;;;;;487595;243;1320;-75
2021/06/05 03:44:29;;;;;;;;;;;20.90;54.10;;;;;;487572;244;1198;-75
2021/06/05 03:46:30;;;;;;;;;;;20.90;54.30;;;;;;487503;244;1130;-75
2021/06/05 03:48:32;;;;;;;;;;;20.90;54.30;;;;;;487557;244;965;-75
2021/06/05 03:50:33;;;;;;;;;;;20.80;54.30;;;;;;487478;244;1103;-75
2021/06/05 03:52:34;;;;;;;;;;;20.80;54.30;;;;;;487502;243;1269;-75
2021/06/05 03:54:35;;;;;;;;;;;20.80;54.30;;;;;;487517;243;1173;-75
2021/06/05 03:56:37;;;;;;;;;;;20.80;54.20;;;;;;487486;243;2190;-75
2021/06/05 03:58:39;;;;;;;;;;;20.80;54.20;;;;;;487586;243;1146;-75
2021/06/05 04:00:39;;;;;;;;;;;20.80;54.20;;;;;;487409;245;1466;-75
2021/06/05 04:02:41;;;;;;;;;;;20.80;54.20;;;;;;487547;243;1188;-75
2021/06/05 04:04:42;;;;;;;;;;;21.00;53.80;;;;;;487571;243;1119;-75
2021/06/05 04:06:43;;;;;;;;;;;21.10;53.60;;;;;;487528;243;1118;-75
2021/06/05 04:08:45;;;;;;;;;;;21.20;53.30;;;;;;487539;244;991;-75
2021/06/05 04:10:46;;;;;;;;;;;21.20;53.10;;;;;;487554;243;926;-75
2021/06/05 04:12:47;;;;;;;;;;;21.20;53.00;;;;;;487555;243;1097;-75
2021/06/05 04:14:48;;;;;;;;;;;21.20;52.90;;;;;;487682;244;1186;-75
2021/06/05 04:16:50;;;;;;;;;;;21.30;52.70;;;;;;487548;243;2190;-75
2021/06/05 04:18:51;;;;;;;;;;;21.30;52.50;;;;;;487560;244;984;-75
2021/06/05 04:20:52;;;;;;;;;;;21.30;52.50;;;;;;487474;243;981;-75
2021/06/05 04:22:53;;;;;;;;;;;21.30;52.50;;;;;;487451;244;1143;-75
2021/06/05 04:24:55;;;;;;;;;;;21.20;52.50;;;;;;487543;243;1037;-75
2021/06/05 04:26:56;;;;;;;;;;;21.30;52.60;;;;;;487453;243;1123;-75
2021/06/05 04:28:58;;;;;;;;;;;21.20;52.50;;;;;;487590;243;1153;-75
2021/06/05 04:30:59;;;;;;;;;;;21.30;52.50;;;;;;487510;244;953;-75
2021/06/05 04:33:00;;;;;;;;;;;21.30;52.60;;;;;;487547;244;1081;-75
2021/06/05 04:35:02;;;;;;;;;;;21.30;52.60;;;;;;487581;244;928;-75
2021/06/05 04:37:03;;;;;;;;;;;21.30;52.50;;;;;;487564;243;2135;-75
2021/06/05 04:39:04;;;;;;;;;;;21.30;52.50;;;;;;487562;243;1086;-75
2021/06/05 04:41:05;;;;;;;;;;;21.30;52.40;;;;;;487466;244;1350;-75
2021/06/05 04:43:07;;;;;;;;;;;21.30;52.30;;;;;;487526;243;1155;-75
2021/06/05 04:45:08;;;;;;;;;;;21.30;52.40;;;;;;487574;241;1155;-75
2021/06/05 04:47:09;;;;;;;;;;;21.30;52.50;;;;;;487528;243;1097;-75
2021/06/05 04:49:11;;;;;;;;;;;21.30;52.40;;;;;;487491;244;1065;-75
2021/06/05 04:51:12;;;;;;;;;;;21.30;52.40;;;;;;487486;244;1228;-75
2021/06/05 04:53:13;;;;;;;;;;;21.30;52.40;;;;;;487591;243;1111;-75
2021/06/05 04:55:14;;;;;;;;;;;21.30;52.30;;;;;;487535;243;1106;-75
2021/06/05 04:57:16;;;;;;;;;;;21.30;52.30;;;;;;487563;244;2197;-75
2021/06/05 04:59:17;;;;;;;;;;;21.40;52.20;;;;;;487560;243;1153;-75
2021/06/05 05:01:18;;;;;;;;;;;21.40;52.20;;;;;;487481;243;1155;-75
2021/06/05 05:03:19;;;;;;;;;;;21.40;52.20;;;;;;487486;244;1058;-75
2021/06/05 05:05:21;;;;;;;;;;;21.40;52.10;;;;;;487583;243;1038;-75
2021/06/05 05:07:22;;;;;;;;;;;21.30;52.20;;;;;;487556;244;1170;-75
2021/06/05 05:09:23;;;;;;;;;;;21.30;52.20;;;;;;487614;243;962;-75
2021/06/05 05:11:25;;;;;;;;;;;21.30;52.30;;;;;;487498;240;1258;-75
2021/06/05 05:13:26;;;;;;;;;;;21.30;52.40;;;;;;487585;243;987;-75
2021/06/05 05:15:27;;;;;;;;;;;21.30;52.40;;;;;;487522;243;1182;-75
2021/06/05 05:17:33;;;;;;;;;;;21.30;52.30;;;;;;487571;243;2185;-75
2021/06/05 05:19:30;;;;;;;;;;;21.40;52.30;;;;;;487183;245;1488;-75
2021/06/05 05:21:31;;;;;;;;;;;21.30;52.20;;;;;;487521;244;965;-75
2021/06/05 05:23:33;;;;;;;;;;;21.30;52.30;;;;;;487550;244;963;-75
2021/06/05 05:25:34;;;;;;;;;;;21.40;52.20;;;;;;487640;244;1402;-75
2021/06/05 05:27:35;;;;;;;;;;;21.40;52.10;;;;;;487602;244;1046;-75
2021/06/05 05:29:36;;;;;;;;;;;21.40;52.10;;;;;;487612;243;1151;-75
2021/06/05 05:31:37;;;;;;;;;;;21.40;52.10;;;;;;487554;243;1097;-75
2021/06/05 05:33:39;;;;;;;;;;;21.40;52.10;;;;;;487622;243;1052;-75
2021/06/05 05:35:40;;;;;;;;;;;21.40;52.20;;;;;;487643;243;1069;-75
2021/06/05 05:37:41;;;;;;;;;;;21.40;52.10;;;;;;487501;244;2143;-75
2021/06/05 05:39:43;;;;;;;;;;;21.40;52.10;;;;;;487554;243;958;-75
2021/06/05 05:41:44;;;;;;;;;;;21.50;52.10;;;;;;487459;244;966;-75
2021/06/05 05:43:45;;;;;;;;;;;21.40;52.10;;;;;;487532;243;1049;-75
2021/06/05 05:45:46;;;;;;;;;;;21.40;52.20;;;;;;487543;243;1188;-75
2021/06/05 05:47:48;;;;;;;;;;;21.40;52.30;;;;;;487536;244;1237;-75
2021/06/05 05:49:49;;;;;;;;;;;21.30;52.20;;;;;;487577;243;990;-75
2021/06/05 05:51:50;;;;;;;;;;;21.40;52.30;;;;;;487523;240;1171;-75
2021/06/05 05:53:52;;;;;;;;;;;21.20;52.50;;;;;;487547;244;1284;-75
2021/06/05 05:55:53;;;;;;;;;;;21.10;53.00;;;;;;487528;244;1060;-75
2021/06/05 05:57:54;;;;;;;;;;;21.00;53.40;;;;;;487541;244;2187;-75
2021/06/05 05:59:55;;;;;;;;;;;21.00;53.80;;;;;;487528;244;1106;-75
2021/06/05 06:01:57;;;;;;;;;;;21.00;54.00;;;;;;487415;243;1222;-75
2021/06/05 06:03:58;;;;;;;;;;;21.00;54.00;;;;;;487546;243;1188;-75
2021/06/05 06:05:59;;;;;;;;;;;20.90;54.10;;;;;;487488;243;1194;-75
2021/06/05 06:08:01;;;;;;;;;;;20.90;54.10;;;;;;487355;244;1143;-75
2021/06/05 06:10:02;;;;;;;;;;;20.90;54.20;;;;;;487458;243;980;-75
2021/06/05 06:12:03;;;;;;;;;;;20.80;54.20;;;;;;487425;243;1082;-75
2021/06/05 06:14:04;;;;;;;;;;;20.90;54.20;;;;;;487333;243;1101;-75
2021/06/05 06:16:07;;;;;;;;;;;20.90;54.00;;;;;;487399;244;1182;-75
2021/06/05 06:18:07;;;;;;;;;;;20.90;53.90;;;;;;487330;245;2178;-75
2021/06/05 06:20:08;;;;;;;;;;;21.00;53.80;;;;;;487488;243;1140;-75
2021/06/05 06:22:10;;;;;;;;;;;21.10;53.50;;;;;;487469;244;1084;-75
2021/06/05 06:24:11;;;;;;;;;;;21.20;53.30;;;;;;487456;244;960;-75
2021/06/05 06:26:12;;;;;;;;;;;21.30;53.00;;;;;;487477;244;1208;-75
2021/06/05 06:28:13;;;;;;;;;;;21.40;52.80;;;;;;487523;243;1002;-75
2021/06/05 06:30:15;;;;;;;;;;;21.40;52.60;;;;;;487523;243;1083;-75
2021/06/05 06:32:16;;;;;;;;;;;21.50;52.40;;;;;;487447;244;1025;-75
2021/06/05 06:34:17;;;;;;;;;;;21.50;52.20;;;;;;487340;244;1033;-75
2021/06/05 06:36:18;;;;;;;;;;;21.50;52.20;;;;;;487427;243;1237;-75
2021/06/05 06:38:20;;;;;;;;;;;21.50;52.10;;;;;;487484;244;2198;-75
2021/06/05 06:40:21;;;;;;;;;;;21.40;52.30;;;;;;487536;243;1034;-75
2021/06/05 06:42:22;;;;;;;;;;;21.50;52.30;;;;;;487467;244;1121;-75
2021/06/05 06:44:24;;;;;;;;;;;21.50;52.30;;;;;;487488;244;1024;-75
2021/06/05 06:46:25;;;;;;;;;;;21.50;52.30;;;;;;487496;243;1254;-75
2021/06/05 06:48:26;;;;;;;;;;;21.50;52.20;;;;;;487398;244;1053;-75
2021/06/05 06:50:28;;;;;;;;;;;21.50;52.30;;;;;;487252;244;961;-75
2021/06/05 06:52:29;;;;;;;;;;;21.50;52.30;;;;;;487525;244;1116;-75
2021/06/05 06:54:30;;;;;;;;;;;21.50;52.30;;;;;;487532;243;1115;-75
2021/06/05 06:56:31;;;;;;;;;;;21.40;52.30;;;;;;487406;242;1206;-75
2021/06/05 06:58:33;;;;;;;;;;;21.50;52.30;;;;;;487502;243;2198;-75
2021/06/05 07:00:34;;;;;;;;;;;21.50;52.30;;;;;;487384;244;1167;-75
2021/06/05 07:02:35;;;;;;;;;;;21.50;52.20;;;;;;487509;244;1130;-75
2021/06/05 07:04:37;;;;;;;;;;;21.60;52.20;;;;;;487466;244;960;-75
2021/06/05 07:06:38;;;;;;;;;;;21.60;52.00;;;;;;487445;244;1168;-75
2021/06/05 07:08:39;;;;;;;;;;;21.60;52.00;;;;;;487446;244;948;-75
2021/06/05 07:10:41;;;;;;;;;;;21.60;52.10;;;;;;487470;243;1045;-75
2021/06/05 07:12:42;;;;;;;;;;;21.50;52.10;;;;;;487456;243;1047;-75
2021/06/05 07:14:43;;;;;;;;;;;21.50;52.10;;;;;;487523;244;1030;-75
2021/06/05 07:16:44;;;;;;;;;;;21.50;52.00;;;;;;487417;244;1262;-75
2021/06/05 07:18:45;;;;;;;;;;;21.50;52.30;;;;;;487428;244;2202;-75
2021/06/05 07:20:49;;;;;;;;;;;21.50;52.30;;;;;;487427;244;949;-75
2021/06/05 07:22:49;;;;;;;;;;;21.50;52.10;;;;;;487476;243;1335;-75
2021/06/05 07:24:50;;;;;;;;;;;21.50;52.20;;;;;;487491;244;989;-75
2021/06/05 07:26:51;;;;;;;;;;;21.50;52.20;;;;;;487407;244;1230;-75
2021/06/05 07:28:53;;;;;;;;;;;21.60;52.20;;;;;;487480;243;1064;-75
2021/06/05 07:30:54;;;;;;;;;;;21.60;52.10;;;;;;487433;243;1280;-75
2021/06/05 07:32:55;;;;;;;;;;;21.60;52.00;;;;;;487444;244;1088;-75
2021/06/05 07:34:57;;;;;;;;;;;21.60;52.10;;;;;;487496;243;1112;-75
2021/06/05 07:37:02;;;;;;;;;;;21.70;52.00;;;;;;487454;244;1122;-75
2021/06/05 07:39:00;;;;;;;;;;;21.70;52.10;;;;;;487164;245;2198;-75
2021/06/05 07:41:01;;;;;;;;;;;21.70;52.00;;;;;;487457;244;1197;-75
2021/06/05 07:43:02;;;;;;;;;;;21.70;51.90;;;;;;487431;243;1171;-75
2021/06/05 07:45:04;;;;;;;;;;;21.70;52.00;;;;;;487448;244;973;-75
2021/06/05 07:47:05;;;;;;;;;;;21.60;52.00;;;;;;487443;243;1356;-75
2021/06/05 07:49:06;;;;;;;;;;;21.60;52.20;;;;;;487486;244;1047;-75
2021/06/05 07:51:08;;;;;;;;;;;21.60;52.20;;;;;;487425;242;1132;-75
2021/06/05 07:53:09;;;;;;;;;;;21.60;52.20;;;;;;487559;243;1176;-75
2021/06/05 07:55:10;;;;;;;;;;;21.50;52.20;;;;;;487567;243;968;-75
2021/06/05 07:57:11;;;;;;;;;;;21.60;52.20;;;;;;487433;243;1324;-75
2021/06/05 07:59:13;;;;;;;;;;;21.70;52.20;;;;;;487512;243;2190;-75
2021/06/05 08:01:14;;;;;;;;;;;21.60;52.10;;;;;;487531;244;1230;-75
2021/06/05 08:03:15;;;;;;;;;;;21.70;52.10;;;;;;487528;244;1139;-75
2021/06/05 08:05:17;;;;;;;;;;;21.70;51.80;;;;;;487499;243;955;-75
2021/06/05 08:07:18;;;;;;;;;;;21.70;52.10;;;;;;487415;244;1219;-75
2021/06/05 08:09:19;;;;;;;;;;;21.70;52.10;;;;;;487503;244;939;-75
2021/06/05 08:11:21;;;;;;;;;;;21.70;52.20;;;;;;487504;243;1142;-75
2021/06/05 08:13:22;;;;;;;;;;;21.60;52.30;;;;;;487439;244;1443;-75
2021/06/05 08:15:23;;;;;;;;;;;21.60;52.40;;;;;;487443;244;942;-75
2021/06/05 08:17:24;;;;;;;;;;;21.60;52.40;;;;;;487480;243;1196;-75
2021/06/05 08:19:26;;;;;;;;;;;21.60;52.30;;;;;;487448;244;2198;-75
2021/06/05 08:21:27;;;;;;;;;;;21.60;52.30;;;;;;487409;244;1190;-75
2021/06/05 08:23:28;;;;;;;;;;;21.70;52.30;;;;;;487500;244;1144;-75
2021/06/05 08:25:29;;;;;;;;;;;21.70;52.30;;;;;;487503;243;983;-75
2021/06/05 08:27:31;;;;;;;;;;;21.70;52.20;;;;;;487473;244;1219;-75
2021/06/05 08:29:32;;;;;;;;;;;21.70;52.20;;;;;;487519;244;969;-75
2021/06/05 08:31:33;;;;;;;;;;;21.70;52.20;;;;;;487412;244;1120;-75
2021/06/05 08:33:35;;;;;;;;;;;21.70;52.00;;;;;;487462;244;975;-75
2021/06/05 08:35:36;;;;;;;;;;;21.70;52.10;;;;;;487469;244;995;-75
2021/06/05 08:37:37;;;;;;;;;;;21.70;52.00;;;;;;487517;244;1148;-75
2021/06/05 08:39:38;;;;;;;;;;;21.70;52.00;;;;;;487591;243;2186;-75
2021/06/05 08:41:40;;;;;;;;;;;21.70;51.90;;;;;;487495;241;1226;-75
2021/06/05 08:43:41;;;;;;;;;;;21.70;51.90;;;;;;487537;244;961;-75
2021/06/05 08:45:42;;;;;;;;;;;21.60;52.20;;;;;;487512;244;1075;-75
2021/06/05 08:47:44;;;;;;;;;;;21.60;52.30;;;;;;487544;244;1266;-75
2021/06/05 08:49:45;;;;;;;;;;;21.60;52.30;;;;;;487473;243;1004;-75
2021/06/05 08:51:46;;;;;;;;;;;21.60;52.30;;;;;;487280;243;1106;-75
2021/06/05 08:53:47;;;;;;;;;;;21.60;52.30;;;;;;487298;243;1091;-75
2021/06/05 08:55:49;;;;;;;;;;;21.60;52.30;;;;;;487472;244;1210;-75
2021/06/05 08:57:50;;;;;;;;;;;21.60;52.40;;;;;;487450;244;1191;-75
2021/06/05 08:59:51;;;;;;;;;;;21.60;52.30;;;;;;487480;243;2130;-75
2021/06/05 09:01:53;;;;;;;;;;;21.70;52.20;;;;;;487494;243;1198;-75
2021/06/05 09:03:54;;;;;;;;;;;21.70;52.20;;;;;;487529;243;954;-75
2021/06/05 09:05:55;;;;;;;;;;;21.60;52.20;;;;;;487510;243;970;-75
2021/06/05 09:07:56;;;;;;;;;;;21.50;52.60;;;;;;487405;244;1072;-75
2021/06/05 09:09:58;;;;;;;;;;;21.50;53.10;;;;;;487447;243;943;-75
2021/06/05 09:11:59;;;;;;;;;;;21.40;53.30;;;;;;487423;243;1216;-75
2021/06/05 09:14:00;;;;;;;;;;;21.30;53.50;;;;;;487450;244;1059;-75
2021/06/05 09:16:02;;;;;;;;;;;21.30;53.70;;;;;;487468;244;962;-75
2021/06/05 09:18:03;;;;;;;;;;;21.30;53.80;;;;;;487419;243;1159;-75
2021/06/05 09:20:04;;;;;;;;;;;21.20;53.90;;;;;;487443;243;2191;-75
2021/06/05 09:22:05;;;;;;;;;;;21.20;54.00;;;;;;487366;243;1163;-75
2021/06/05 09:24:07;;;;;;;;;;;21.20;54.00;;;;;;487585;243;962;-75
2021/06/05 09:26:08;;;;;;;;;;;21.20;54.00;;;;;;487438;244;1093;-75
2021/06/05 09:28:09;;;;;;;;;;;21.10;54.00;;;;;;487456;243;968;-75
2021/06/05 09:30:11;;;;;;;;;;;21.10;54.10;;;;;;487560;244;930;-75
2021/06/05 09:32:12;;;;;;;;;;;21.20;54.10;;;;;;487457;243;1201;-75
2021/06/05 09:34:13;;;;;;;;;;;21.30;53.90;;;;;;487485;244;1172;-75
2021/06/05 09:36:14;;;;;;;;;;;21.30;53.70;;;;;;487402;244;1206;-75
2021/06/05 09:38:16;;;;;;;;;;;21.40;53.50;;;;;;487586;244;1034;-75
2021/06/05 09:40:17;;;;;;;;;;;21.40;53.20;;;;;;487519;243;2174;-75
2021/06/05 09:42:18;;;;;;;;;;;21.40;53.00;;;;;;487466;243;1101;-75
2021/06/05 09:44:20;;;;;;;;;;;21.50;53.10;;;;;;487461;244;1104;-75
2021/06/05 09:46:21;;;;;;;;;;;21.50;52.90;;;;;;487472;244;1089;-75
2021/06/05 09:48:22;;;;;;;;;;;21.60;52.80;;;;;;487447;244;1172;-75
2021/06/05 09:50:23;;;;;;;;;;;21.60;52.70;;;;;;487495;244;1095;-75
2021/06/05 09:52:25;;;;;;;;;;;21.60;52.70;;;;;;487452;244;1192;-76
2021/06/05 09:54:26;;;;;;;;;;;21.60;52.70;;;;;;487448;243;1031;-75
2021/06/05 09:56:27;;;;;;;;;;;21.60;52.70;;;;;;487429;244;1269;-75
2021/06/05 09:58:29;;;;;;;;;;;21.60;52.70;;;;;;487514;243;950;-75
2021/06/05 10:00:30;;;;;;;;;;;21.60;52.60;;;;;;487542;243;2182;-75
2021/06/05 10:02:31;;;;;;;;;;;21.70;52.50;;;;;;487428;244;1108;-75
2021/06/05 10:04:33;;;;;;;;;;;21.70;52.30;;;;;;487524;240;1185;-75
2021/06/05 10:06:34;;;;;;;;;;;21.70;52.50;;;;;;487445;243;1329;-75
2021/06/05 10:08:35;;;;;;;;;;;21.70;52.40;;;;;;487489;244;958;-75
2021/06/05 10:10:36;;;;;;;;;;;21.60;52.50;;;;;;487493;243;1207;-75
2021/06/05 10:12:38;;;;;;;;;;;21.60;52.60;;;;;;487425;243;1091;-75
2021/06/05 10:14:39;;;;;;;;;;;21.60;52.70;;;;;;487484;243;1073;-75
2021/06/05 10:16:40;;;;;;;;;;;21.60;52.70;;;;;;487346;244;1213;-75
2021/06/05 10:18:42;;;;;;;;;;;21.60;52.60;;;;;;487375;241;1160;-75
2021/06/05 10:20:44;;;;;;;;;;;21.50;52.60;;;;;;487461;243;1311;-75
2021/06/05 10:22:45;;;;;;;;;;;21.50;52.60;;;;;;487443;244;1318;-75
2021/06/05 10:24:46;;;;;;;;;;;21.50;52.80;;;;;;487496;243;958;-75
2021/06/05 10:26:47;;;;;;;;;;;21.40;52.70;;;;;;487549;244;1233;-75
2021/06/05 10:28:49;;;;;;;;;;;21.50;52.70;;;;;;487468;243;983;-75
2021/06/05 10:30:50;;;;;;;;;;;21.50;52.60;;;;;;487452;243;1253;-75
2021/06/05 10:32:51;;;;;;;;;;;21.50;52.50;;;;;;487503;244;1033;-75
2021/06/05 10:34:52;;;;;;;;;;;21.50;52.50;;;;;;487521;244;1169;-75
2021/06/05 10:36:54;;;;;;;;;;;21.50;52.40;;;;;;487555;243;1106;-75
2021/06/05 10:38:55;;;;;;;;;;;21.50;52.40;;;;;;487504;243;2143;-75
2021/06/05 10:40:56;;;;;;;;;;;21.50;52.40;;;;;;487478;241;1134;-75
2021/06/05 10:42:58;;;;;;;;;;;21.50;52.40;;;;;;487458;244;1153;-75
2021/06/05 10:44:59;;;;;;;;;;;21.50;52.50;;;;;;487481;244;1182;-75
2021/06/05 10:47:00;;;;;;;;;;;21.50;52.40;;;;;;487494;243;1098;-75
2021/06/05 10:49:01;;;;;;;;;;;21.50;52.40;;;;;;487526;243;1143;-75
2021/06/05 10:51:03;;;;;;;;;;;21.50;52.40;;;;;;487520;242;1258;-75
2021/06/05 10:53:04;;;;;;;;;;;21.50;52.40;;;;;;487503;244;1042;-75
2021/06/05 10:55:05;;;;;;;;;;;21.50;52.40;;;;;;487474;243;991;-75
2021/06/05 10:57:06;;;;;;;;;;;21.50;52.30;;;;;;487422;244;1117;-75
2021/06/05 10:59:08;;;;;;;;;;;21.60;52.40;;;;;;487473;243;2182;-75
2021/06/05 11:01:09;;;;;;;;;;;21.60;52.30;;;;;;487469;240;1155;-75
2021/06/05 11:03:10;;;;;;;;;;;21.70;52.20;;;;;;487465;243;1003;-75
2021/06/05 11:05:12;;;;;;;;;;;21.60;52.10;;;;;;487505;244;1160;-75
2021/06/05 11:07:13;;;;;;;;;;;21.70;52.30;;;;;;487444;243;930;-75
2021/06/05 11:09:14;;;;;;;;;;;21.60;52.30;;;;;;487448;243;1119;-75
2021/06/05 11:11:17;;;;;;;;;;;21.70;52.20;;;;;;487458;241;1175;-75
2021/06/05 11:13:17;;;;;;;;;;;21.70;52.20;;;;;;487494;245;1477;-75
2021/06/05 11:15:18;;;;;;;;;;;21.60;52.30;;;;;;487431;243;989;-75
2021/06/05 11:17:20;;;;;;;;;;;21.70;52.30;;;;;;487546;243;1156;-75
2021/06/05 11:19:21;;;;;;;;;;;21.70;52.20;;;;;;487512;244;2221;-75
2021/06/05 11:21:22;;;;;;;;;;;21.70;52.20;;;;;;487401;243;1169;-75
2021/06/05 11:23:23;;;;;;;;;;;21.60;52.30;;;;;;487489;244;1108;-75
2021/06/05 11:25:25;;;;;;;;;;;21.60;52.30;;;;;;487519;243;996;-75
2021/06/05 11:27:26;;;;;;;;;;;21.60;52.50;;;;;;487429;243;1158;-75
2021/06/05 11:29:27;;;;;;;;;;;21.60;52.50;;;;;;487410;244;975;-75
2021/06/05 11:31:28;;;;;;;;;;;21.60;52.50;;;;;;487327;244;1226;-75
2021/06/05 11:33:30;;;;;;;;;;;21.60;52.50;;;;;;487462;244;1098;-75
2021/06/05 11:35:31;;;;;;;;;;;21.70;52.40;;;;;;487449;244;1215;-75
2021/06/05 11:37:32;;;;;;;;;;;21.70;52.30;;;;;;487523;244;1083;-75
2021/06/05 11:39:34;;;;;;;;;;;21.70;52.30;;;;;;487522;244;2206;-75
2021/06/05 11:41:35;;;;;;;;;;;21.60;52.40;;;;;;487540;243;1176;-75
2021/06/05 11:43:36;;;;;;;;;;;21.70;52.30;;;;;;487506;244;948;-75
2021/06/05 11:45:37;;;;;;;;;;;21.70;52.30;;;;;;487465;243;1228;-75
2021/06/05 11:47:39;;;;;;;;;;;21.80;52.10;;;;;;487551;243;1205;-75
2021/06/05 11:49:40;;;;;;;;;;;21.80;52.10;;;;;;487425;244;1206;-75
2021/06/05 11:51:41;;;;;;;;;;;21.80;52.10;;;;;;487485;244;1206;-75
2021/06/05 11:53:43;;;;;;;;;;;21.80;52.00;;;;;;487459;244;947;-75
2021/06/05 11:55:44;;;;;;;;;;;21.70;52.30;;;;;;487470;244;1215;-75
2021/06/05 11:57:45;;;;;;;;;;;21.60;52.70;;;;;;487323;243;1070;-75